createdAt,value
2018-12-04T00:00:41.050Z,7.50
2018-12-04T00:01:44.834Z,7.50
2018-12-04T00:02:48.426Z,7.50
2018-12-04T00:03:53.321Z,7.60
2018-12-04T00:04:56.819Z,7.60
2018-12-04T00:06:00.504Z,7.60
2018-12-04T00:07:04.061Z,7.50
2018-12-04T00:08:07.673Z,7.50
2018-12-04T00:09:11.283Z,7.60
2018-12-04T00:10:14.834Z,7.50
2018-12-04T00:11:18.923Z,7.50
2018-12-04T00:12:22.575Z,7.50
2018-12-04T00:13:26.089Z,7.60
2018-12-04T00:14:29.708Z,7.60
2018-12-04T00:15:34.241Z,7.60
2018-12-04T00:16:37.997Z,7.50
2018-12-04T00:17:41.743Z,7.50
2018-12-04T00:18:45.476Z,7.50
2018-12-04T00:19:48.924Z,7.60
2018-12-04T00:20:52.715Z,7.50
2018-12-04T00:21:56.208Z,7.50
2018-12-04T00:22:59.802Z,7.50
2018-12-04T00:24:03.939Z,7.60
2018-12-04T00:25:07.743Z,7.60
2018-12-04T00:26:11.451Z,7.60
2018-12-04T00:27:15.360Z,7.60
2018-12-04T00:28:19.229Z,7.60
2018-12-04T00:29:23.395Z,7.60
2018-12-04T00:30:26.950Z,7.60
2018-12-04T00:31:30.512Z,7.60
2018-12-04T00:32:34.759Z,7.60
2018-12-04T00:33:39.196Z,7.60
2018-12-04T00:34:42.852Z,7.60
2018-12-04T00:35:46.440Z,7.60
2018-12-04T00:36:51.243Z,7.60
2018-12-04T00:37:54.832Z,7.60
2018-12-04T00:38:58.577Z,7.50
2018-12-04T00:40:03.186Z,7.50
2018-12-04T00:41:06.752Z,7.60
2018-12-04T00:42:10.308Z,7.50
2018-12-04T00:43:14.417Z,7.50
2018-12-04T00:44:18.015Z,7.60
2018-12-04T00:45:21.516Z,7.60
2018-12-04T00:46:25.228Z,7.60
2018-12-04T00:47:28.765Z,7.60
2018-12-04T00:48:33.143Z,7.60
2018-12-04T00:49:36.848Z,7.50
2018-12-04T00:50:40.470Z,7.50
2018-12-04T00:51:44.033Z,7.50
2018-12-04T00:52:47.571Z,7.50
2018-12-04T00:53:51.551Z,7.50
2018-12-04T00:54:55.836Z,7.60
2018-12-04T00:56:00.894Z,7.50
2018-12-04T00:57:04.421Z,7.50
2018-12-04T00:58:08.173Z,7.50
2018-12-04T00:59:12.722Z,7.50
2018-12-04T01:00:16.312Z,7.50
2018-12-04T01:01:20.040Z,7.50
2018-12-04T01:02:24.306Z,7.50
2018-12-04T01:03:27.873Z,7.50
2018-12-04T01:04:32.046Z,7.50
2018-12-04T01:05:36.438Z,7.50
2018-12-04T01:06:39.912Z,7.50
2018-12-04T01:07:43.499Z,7.50
2018-12-04T01:08:47.308Z,7.50
2018-12-04T01:09:51.044Z,7.50
2018-12-04T01:10:54.539Z,7.50
2018-12-04T01:11:58.345Z,7.50
2018-12-04T01:13:01.861Z,7.50
2018-12-04T01:14:05.428Z,7.50
2018-12-04T01:15:09.038Z,7.50
2018-12-04T01:16:14.529Z,7.40
2018-12-04T01:17:18.188Z,7.50
2018-12-04T01:18:21.720Z,7.50
2018-12-04T01:19:25.265Z,7.50
2018-12-04T01:20:29.651Z,7.50
2018-12-04T01:21:33.149Z,7.50
2018-12-04T01:22:36.784Z,7.50
2018-12-04T01:23:40.432Z,7.40
2018-12-04T01:24:45.061Z,7.40
2018-12-04T01:25:48.632Z,7.40
2018-12-04T01:26:52.602Z,7.30
2018-12-04T01:27:57.098Z,7.30
2018-12-04T01:29:00.956Z,7.30
2018-12-04T01:30:05.083Z,7.20
2018-12-04T01:31:08.624Z,7.20
2018-12-04T01:32:12.259Z,7.20
2018-12-04T01:33:15.719Z,7.20
2018-12-04T01:34:19.299Z,7.20
2018-12-04T01:35:23.004Z,7.20
2018-12-04T01:36:26.760Z,7.30
2018-12-04T01:37:30.364Z,7.30
2018-12-04T01:38:34.020Z,7.30
2018-12-04T01:39:37.635Z,7.30
2018-12-04T01:40:41.194Z,7.40
2018-12-04T01:41:44.791Z,7.40
2018-12-04T01:42:48.278Z,7.40
2018-12-04T01:43:53.144Z,7.40
2018-12-04T01:44:56.709Z,7.40
2018-12-04T01:46:00.534Z,7.30
2018-12-04T01:47:04.993Z,7.40
2018-12-04T01:48:08.702Z,7.30
2018-12-04T01:49:12.311Z,7.30
2018-12-04T01:50:15.793Z,7.40
2018-12-04T01:51:19.416Z,7.30
2018-12-04T01:52:23.512Z,7.30
2018-12-04T01:53:27.092Z,7.30
2018-12-04T01:54:30.596Z,7.20
2018-12-04T01:55:35.201Z,7.30
2018-12-04T01:56:38.876Z,7.30
2018-12-04T01:57:42.512Z,7.30
2018-12-04T01:58:46.220Z,7.30
2018-12-04T01:59:49.722Z,7.30
2018-12-04T02:00:53.308Z,7.30
2018-12-04T02:01:56.833Z,7.30
2018-12-04T02:03:00.372Z,7.30
2018-12-04T02:04:05.622Z,7.20
2018-12-04T02:05:09.189Z,7.20
2018-12-04T02:06:12.812Z,7.20
2018-12-04T02:07:16.340Z,7.20
2018-12-04T02:08:20.028Z,7.20
2018-12-04T02:09:23.721Z,7.30
2018-12-04T02:10:27.302Z,7.20
2018-12-04T02:11:30.873Z,7.20
2018-12-04T02:12:34.457Z,7.20
2018-12-04T02:13:38.569Z,7.20
2018-12-04T02:14:42.255Z,7.30
2018-12-04T02:15:46.324Z,7.30
2018-12-04T02:16:49.835Z,7.30
2018-12-04T02:17:53.526Z,7.30
2018-12-04T02:18:57.227Z,7.30
2018-12-04T02:20:00.887Z,7.30
2018-12-04T02:21:05.447Z,7.30
2018-12-04T02:22:09.077Z,7.30
2018-12-04T02:23:12.800Z,7.30
2018-12-04T02:24:16.464Z,7.40
2018-12-04T02:25:19.956Z,7.40
2018-12-04T02:26:24.078Z,7.40
2018-12-04T02:27:27.579Z,7.50
2018-12-04T02:28:36.464Z,7.50
2018-12-04T02:29:40.008Z,7.50
2018-12-04T02:30:43.497Z,7.50
2018-12-04T02:31:47.216Z,7.50
2018-12-04T02:32:50.717Z,7.40
2018-12-04T02:33:54.945Z,7.50
2018-12-04T02:34:58.595Z,7.50
2018-12-04T02:36:02.168Z,7.50
2018-12-04T02:37:05.747Z,7.50
2018-12-04T02:38:09.451Z,7.40
2018-12-04T02:39:13.108Z,7.50
2018-12-04T02:40:17.970Z,7.50
2018-12-04T02:41:21.619Z,7.50
2018-12-04T02:42:25.516Z,7.50
2018-12-04T02:43:29.072Z,7.40
2018-12-04T02:44:33.183Z,7.40
2018-12-04T02:45:37.975Z,7.50
2018-12-04T02:46:41.577Z,7.40
2018-12-04T02:47:45.397Z,7.40
2018-12-04T02:48:48.897Z,7.40
2018-12-04T02:49:53.077Z,7.40
2018-12-04T02:50:56.580Z,7.40
2018-12-04T02:52:00.889Z,7.40
2018-12-04T02:53:04.388Z,7.40
2018-12-04T02:54:08.599Z,7.40
2018-12-04T02:55:12.321Z,7.40
2018-12-04T02:56:15.872Z,7.50
2018-12-04T02:57:19.421Z,7.40
2018-12-04T02:58:22.948Z,7.40
2018-12-04T02:59:26.755Z,7.40
2018-12-04T03:00:30.356Z,7.40
2018-12-04T03:01:33.979Z,7.40
2018-12-04T03:02:37.534Z,7.40
2018-12-04T03:03:41.162Z,7.40
2018-12-04T03:04:44.831Z,7.30
2018-12-04T03:05:49.242Z,7.40
2018-12-04T03:06:52.806Z,7.40
2018-12-04T03:07:56.286Z,7.40
2018-12-04T03:08:59.915Z,7.40
2018-12-04T03:10:03.674Z,7.40
2018-12-04T03:11:07.215Z,7.40
2018-12-04T03:12:11.067Z,7.40
2018-12-04T03:13:14.899Z,7.40
2018-12-04T03:14:18.439Z,7.40
2018-12-04T03:15:22.950Z,7.40
2018-12-04T03:16:26.509Z,7.40
2018-12-04T03:17:30.416Z,7.40
2018-12-04T03:18:33.986Z,7.40
2018-12-04T03:19:38.207Z,7.40
2018-12-04T03:20:42.534Z,7.40
2018-12-04T03:21:46.549Z,7.40
2018-12-04T03:22:50.262Z,7.40
2018-12-04T03:23:53.788Z,7.40
2018-12-04T03:24:57.524Z,7.40
2018-12-04T03:26:01.224Z,7.40
2018-12-04T03:27:04.752Z,7.40
2018-12-04T03:28:08.333Z,7.40
2018-12-04T03:29:12.274Z,7.40
2018-12-04T03:30:16.324Z,7.30
2018-12-04T03:31:20.353Z,7.30
2018-12-04T03:32:23.912Z,7.30
2018-12-04T03:33:39.863Z,7.30
2018-12-04T03:34:44.194Z,7.30
2018-12-04T03:35:48.168Z,7.30
2018-12-04T03:36:52.343Z,7.40
2018-12-04T03:37:55.966Z,7.40
2018-12-04T03:38:59.508Z,7.40
2018-12-04T03:40:03.168Z,7.30
2018-12-04T03:41:08.232Z,7.30
2018-12-04T03:42:11.924Z,7.30
2018-12-04T03:43:15.836Z,7.30
2018-12-04T03:44:19.665Z,7.40
2018-12-04T03:45:23.225Z,7.30
2018-12-04T03:46:26.729Z,7.30
2018-12-04T03:47:30.279Z,7.30
2018-12-04T03:48:33.777Z,7.30
2018-12-04T03:49:38.432Z,7.30
2018-12-04T03:50:41.966Z,7.30
2018-12-04T03:51:45.507Z,7.20
2018-12-04T03:52:49.000Z,7.20
2018-12-04T03:53:52.509Z,7.30
2018-12-04T03:54:56.047Z,7.30
2018-12-04T03:55:59.747Z,7.30
2018-12-04T03:57:03.211Z,7.20
2018-12-04T03:58:06.825Z,7.20
2018-12-04T03:59:10.537Z,7.20
2018-12-04T04:00:14.207Z,7.20
2018-12-04T04:01:17.924Z,7.20
2018-12-04T04:02:21.550Z,7.20
2018-12-04T04:03:25.053Z,7.20
2018-12-04T04:04:28.973Z,7.20
2018-12-04T04:05:32.470Z,7.20
2018-12-04T04:06:36.080Z,7.20
2018-12-04T04:07:39.661Z,7.20
2018-12-04T04:08:43.789Z,7.20
2018-12-04T04:09:48.945Z,7.20
2018-12-04T04:10:52.465Z,7.20
2018-12-04T04:11:56.277Z,7.20
2018-12-04T04:13:00.557Z,7.10
2018-12-04T04:14:04.289Z,7.10
2018-12-04T04:15:09.480Z,7.00
2018-12-04T04:16:13.629Z,7.00
2018-12-04T04:17:17.304Z,6.90
2018-12-04T04:18:21.070Z,6.90
2018-12-04T04:19:24.773Z,6.90
2018-12-04T04:20:28.656Z,6.80
2018-12-04T04:21:32.171Z,6.80
2018-12-04T04:22:35.790Z,6.70
2018-12-04T04:23:39.567Z,6.60
2018-12-04T04:24:43.393Z,6.60
2018-12-04T04:25:47.073Z,6.60
2018-12-04T04:26:50.835Z,6.50
2018-12-04T04:27:54.439Z,6.50
2018-12-04T04:28:58.173Z,6.40
2018-12-04T04:30:01.711Z,6.40
2018-12-04T04:31:05.407Z,6.30
2018-12-04T04:32:08.911Z,6.30
2018-12-04T04:33:12.818Z,6.20
2018-12-04T04:34:16.408Z,6.10
2018-12-04T04:35:20.091Z,5.90
2018-12-04T04:36:24.788Z,5.90
2018-12-04T04:37:28.551Z,5.80
2018-12-04T04:38:32.933Z,5.70
2018-12-04T04:39:36.864Z,5.70
2018-12-04T04:40:40.614Z,5.70
2018-12-04T04:41:44.371Z,5.60
2018-12-04T04:42:47.867Z,5.60
2018-12-04T04:43:51.700Z,5.60
2018-12-04T04:44:55.282Z,5.60
2018-12-04T04:45:59.555Z,5.60
2018-12-04T04:47:03.097Z,5.50
2018-12-04T04:48:06.690Z,5.40
2018-12-04T04:49:10.376Z,5.40
2018-12-04T04:50:14.051Z,5.40
2018-12-04T04:51:17.590Z,5.30
2018-12-04T04:52:21.232Z,5.30
2018-12-04T04:53:24.854Z,5.20
2018-12-04T04:54:28.538Z,5.20
2018-12-04T04:55:32.092Z,5.10
2018-12-04T04:56:35.675Z,5.10
2018-12-04T04:57:39.251Z,5.00
2018-12-04T04:58:43.099Z,5.00
2018-12-04T04:59:46.686Z,5.00
2018-12-04T05:00:50.398Z,4.90
2018-12-04T05:01:54.140Z,4.90
2018-12-04T05:02:57.780Z,4.80
2018-12-04T05:04:01.293Z,4.80
2018-12-04T05:05:05.447Z,4.70
2018-12-04T05:06:09.184Z,4.70
2018-12-04T05:07:13.043Z,4.70
2018-12-04T05:08:16.616Z,4.70
2018-12-04T05:09:20.337Z,4.70
2018-12-04T05:10:24.451Z,4.70
2018-12-04T05:11:28.552Z,4.70
2018-12-04T05:12:32.168Z,4.70
2018-12-04T05:13:35.740Z,4.70
2018-12-04T05:14:39.309Z,4.70
2018-12-04T05:15:43.185Z,4.60
2018-12-04T05:16:46.778Z,4.50
2018-12-04T05:17:50.406Z,4.50
2018-12-04T05:18:54.019Z,4.50
2018-12-04T05:19:58.089Z,4.50
2018-12-04T05:21:01.638Z,4.50
2018-12-04T05:22:05.249Z,4.50
2018-12-04T05:23:08.767Z,4.50
2018-12-04T05:24:12.521Z,4.50
2018-12-04T05:25:16.044Z,4.50
2018-12-04T05:26:19.644Z,4.50
2018-12-04T05:27:23.268Z,4.50
2018-12-04T05:28:27.024Z,4.50
2018-12-04T05:29:30.603Z,4.50
2018-12-04T05:30:34.409Z,4.50
2018-12-04T05:31:37.995Z,4.50
2018-12-04T05:32:41.736Z,4.40
2018-12-04T05:33:45.235Z,4.40
2018-12-04T05:34:48.876Z,4.40
2018-12-04T05:35:52.495Z,4.40
2018-12-04T05:36:56.210Z,4.50
2018-12-04T05:38:00.052Z,4.40
2018-12-04T05:39:04.127Z,4.40
2018-12-04T05:40:08.098Z,4.40
2018-12-04T05:41:12.118Z,4.30
2018-12-04T05:42:15.695Z,4.30
2018-12-04T05:43:19.281Z,4.20
2018-12-04T05:44:22.984Z,4.20
2018-12-04T05:45:26.762Z,4.10
2018-12-04T05:46:30.318Z,4.20
2018-12-04T05:47:34.209Z,4.20
2018-12-04T05:48:37.916Z,4.20
2018-12-04T05:49:42.316Z,4.10
2018-12-04T05:50:46.244Z,4.10
2018-12-04T05:51:49.836Z,4.10
2018-12-04T05:53:58.414Z,4.30
2018-12-04T05:55:02.037Z,4.30
2018-12-04T05:56:08.508Z,4.20
2018-12-04T05:57:12.182Z,4.20
2018-12-04T05:58:15.820Z,4.20
2018-12-04T05:59:19.397Z,4.20
2018-12-04T06:00:23.090Z,4.10
2018-12-04T06:01:26.838Z,4.10
2018-12-04T06:02:30.604Z,4.00
2018-12-04T06:03:34.410Z,4.00
2018-12-04T06:04:39.333Z,4.00
2018-12-04T06:05:43.799Z,4.00
2018-12-04T06:06:47.534Z,4.00
2018-12-04T06:07:51.097Z,4.00
2018-12-04T06:08:54.860Z,3.90
2018-12-04T06:09:58.891Z,3.90
2018-12-04T06:11:02.847Z,3.80
2018-12-04T06:12:45.656Z,3.80
2018-12-04T06:13:49.941Z,3.80
2018-12-04T06:14:54.062Z,3.70
2018-12-04T06:15:57.552Z,3.70
2018-12-04T06:17:01.095Z,3.70
2018-12-04T06:18:04.705Z,3.70
2018-12-04T06:19:08.707Z,3.80
2018-12-04T06:20:12.201Z,3.80
2018-12-04T06:21:16.181Z,3.70
2018-12-04T06:22:19.737Z,3.80
2018-12-04T06:23:23.389Z,3.80
2018-12-04T06:24:27.497Z,3.90
2018-12-04T06:25:31.136Z,3.90
2018-12-04T06:26:34.597Z,3.90
2018-12-04T06:27:38.173Z,3.90
2018-12-04T06:28:42.205Z,4.00
2018-12-04T06:29:45.885Z,4.00
2018-12-04T06:30:49.417Z,4.10
2018-12-04T06:31:54.840Z,4.10
2018-12-04T06:32:59.219Z,4.20
2018-12-04T06:34:02.823Z,4.20
2018-12-04T06:35:07.283Z,4.20
2018-12-04T06:36:10.829Z,4.20
2018-12-04T06:37:15.101Z,4.20
2018-12-04T06:38:18.604Z,4.20
2018-12-04T06:39:22.971Z,4.20
2018-12-04T06:40:27.024Z,4.20
2018-12-04T06:41:31.150Z,4.20
2018-12-04T06:42:34.768Z,4.20
2018-12-04T06:43:38.427Z,4.20
2018-12-04T06:44:46.791Z,4.20
2018-12-04T06:45:47.332Z,4.30
2018-12-04T06:46:50.864Z,4.30
2018-12-04T06:47:54.624Z,4.30
2018-12-04T06:48:58.097Z,4.30
2018-12-04T06:50:02.848Z,4.30
2018-12-04T06:51:06.818Z,4.30
2018-12-04T06:52:10.367Z,4.30
2018-12-04T06:53:14.007Z,4.30
2018-12-04T06:54:17.501Z,4.30
2018-12-04T06:55:21.133Z,4.20
2018-12-04T06:56:24.630Z,4.20
2018-12-04T06:57:28.411Z,4.20
2018-12-04T06:58:31.911Z,4.20
2018-12-04T06:59:35.473Z,4.20
2018-12-04T07:00:39.745Z,4.20
2018-12-04T07:01:43.646Z,4.30
2018-12-04T07:02:47.315Z,4.20
2018-12-04T07:03:51.035Z,4.30
2018-12-04T07:04:54.524Z,4.20
2018-12-04T07:05:58.670Z,4.20
2018-12-04T07:07:02.260Z,4.20
2018-12-04T07:08:05.921Z,4.10
2018-12-04T07:09:09.447Z,4.10
2018-12-04T07:10:13.128Z,4.10
2018-12-04T07:11:17.215Z,4.10
2018-12-04T07:12:21.184Z,4.00
2018-12-04T07:13:24.803Z,3.90
2018-12-04T07:14:29.531Z,3.90
2018-12-04T07:15:33.005Z,3.80
2018-12-04T07:16:36.732Z,3.80
2018-12-04T07:17:40.213Z,3.80
2018-12-04T07:18:45.115Z,3.70
2018-12-04T07:19:49.039Z,3.80
2018-12-04T07:20:52.547Z,3.70
2018-12-04T07:21:55.973Z,3.70
2018-12-04T07:23:00.312Z,3.70
2018-12-04T07:24:03.820Z,3.70
2018-12-04T07:25:08.463Z,3.70
2018-12-04T07:26:12.374Z,3.60
2018-12-04T07:27:15.840Z,3.60
2018-12-04T07:28:19.419Z,3.60
2018-12-04T07:29:23.451Z,3.60
2018-12-04T07:30:27.600Z,3.60
2018-12-04T07:31:31.060Z,3.70
2018-12-04T07:32:38.713Z,3.70
2018-12-04T07:33:40.282Z,3.70
2018-12-04T07:34:44.696Z,3.70
2018-12-04T07:35:49.038Z,3.60
2018-12-04T07:36:52.584Z,3.60
2018-12-04T07:37:57.975Z,3.60
2018-12-04T07:39:01.444Z,3.60
2018-12-04T07:40:06.341Z,3.60
2018-12-04T07:41:10.193Z,3.60
2018-12-04T07:42:13.881Z,3.50
2018-12-04T07:43:18.100Z,3.50
2018-12-04T07:44:21.739Z,3.50
2018-12-04T07:45:25.290Z,3.50
2018-12-04T07:46:29.373Z,3.50
2018-12-04T07:47:36.048Z,3.50
2018-12-04T07:48:40.534Z,3.60
2018-12-04T07:49:45.103Z,3.60
2018-12-04T07:50:48.709Z,3.60
2018-12-04T07:51:52.219Z,3.60
2018-12-04T07:52:55.989Z,3.60
2018-12-04T07:53:59.582Z,3.60
2018-12-04T07:55:03.395Z,3.70
2018-12-04T07:56:07.030Z,3.70
2018-12-04T07:57:10.672Z,3.70
2018-12-04T07:58:14.343Z,3.70
2018-12-04T07:59:18.456Z,3.70
2018-12-04T08:00:22.061Z,3.80
2018-12-04T08:01:25.641Z,3.80
2018-12-04T08:02:29.401Z,3.80
2018-12-04T08:03:33.001Z,3.80
2018-12-04T08:04:36.509Z,3.90
2018-12-04T08:05:40.241Z,3.90
2018-12-04T08:06:43.705Z,3.80
2018-12-04T08:07:47.374Z,3.80
2018-12-04T08:08:51.762Z,3.80
2018-12-04T08:09:55.358Z,3.80
2018-12-04T08:10:58.900Z,3.80
2018-12-04T08:12:03.295Z,3.90
2018-12-04T08:13:06.869Z,3.80
2018-12-04T08:14:11.175Z,3.90
2018-12-04T08:15:14.683Z,3.90
2018-12-04T08:16:18.946Z,3.80
2018-12-04T08:17:22.581Z,3.80
2018-12-04T08:18:26.848Z,3.80
2018-12-04T08:19:30.324Z,3.90
2018-12-04T08:20:33.985Z,3.90
2018-12-04T08:21:37.496Z,3.90
2018-12-04T08:22:41.319Z,3.90
2018-12-04T08:23:45.261Z,3.90
2018-12-04T08:24:48.878Z,3.90
2018-12-04T08:25:52.874Z,4.00
2018-12-04T08:26:57.126Z,4.00
2018-12-04T08:28:00.874Z,4.00
2018-12-04T08:29:04.844Z,4.10
2018-12-04T08:30:09.108Z,4.00
2018-12-04T08:31:13.187Z,4.10
2018-12-04T08:32:16.758Z,4.00
2018-12-04T08:33:20.252Z,4.00
2018-12-04T08:34:23.872Z,4.00
2018-12-04T08:35:27.914Z,4.10
2018-12-04T08:36:31.563Z,4.10
2018-12-04T08:37:35.745Z,4.20
2018-12-04T08:38:40.811Z,4.20
2018-12-04T08:39:45.415Z,4.30
2018-12-04T08:40:49.047Z,4.30
2018-12-04T08:41:52.592Z,4.30
2018-12-04T08:42:56.780Z,4.40
2018-12-04T08:44:00.975Z,4.50
2018-12-04T08:45:05.926Z,4.50
2018-12-04T08:46:09.480Z,4.50
2018-12-04T08:47:13.153Z,4.50
2018-12-04T08:48:16.707Z,4.50
2018-12-04T08:49:20.200Z,4.60
2018-12-04T08:50:23.809Z,4.60
2018-12-04T08:51:27.377Z,4.60
2018-12-04T08:52:31.636Z,4.60
2018-12-04T08:53:35.257Z,4.70
2018-12-04T08:54:39.006Z,4.70
2018-12-04T08:55:42.699Z,4.70
2018-12-04T08:56:46.231Z,4.70
2018-12-04T08:57:50.745Z,4.70
2018-12-04T08:58:54.322Z,4.70
2018-12-04T08:59:57.823Z,4.80
2018-12-04T09:01:02.401Z,4.80
2018-12-04T09:02:06.443Z,4.80
2018-12-04T09:03:10.099Z,4.80
2018-12-04T09:04:14.170Z,5.00
2018-12-04T09:05:18.418Z,5.00
2018-12-04T09:06:21.965Z,5.00
2018-12-04T09:07:25.640Z,5.10
2018-12-04T09:08:30.320Z,5.10
2018-12-04T09:09:34.971Z,5.10
2018-12-04T09:10:38.523Z,5.20
2018-12-04T09:11:41.972Z,5.20
2018-12-04T09:12:45.953Z,5.30
2018-12-04T09:13:49.639Z,5.30
2018-12-04T09:14:53.152Z,5.30
2018-12-04T09:15:57.305Z,5.40
2018-12-04T09:17:00.765Z,5.40
2018-12-04T09:18:05.081Z,5.40
2018-12-04T09:19:09.444Z,5.50
2018-12-04T09:20:13.947Z,5.50
2018-12-04T09:21:18.240Z,5.50
2018-12-04T09:22:21.870Z,5.50
2018-12-04T09:23:25.949Z,5.60
2018-12-04T09:24:30.837Z,5.60
2018-12-04T09:25:34.762Z,5.60
2018-12-04T09:26:39.204Z,5.60
2018-12-04T09:27:42.759Z,5.60
2018-12-04T09:28:46.464Z,5.70
2018-12-04T09:29:50.362Z,5.70
2018-12-04T09:30:54.869Z,5.70
2018-12-04T09:31:58.944Z,5.70
2018-12-04T09:33:02.584Z,5.70
2018-12-04T09:34:06.139Z,5.80
2018-12-04T09:35:09.718Z,5.80
2018-12-04T09:36:13.400Z,5.80
2018-12-04T09:37:17.524Z,5.80
2018-12-04T09:38:21.131Z,5.90
2018-12-04T09:39:24.709Z,5.90
2018-12-04T09:40:28.321Z,5.90
2018-12-04T09:41:31.891Z,5.90
2018-12-04T09:42:37.439Z,5.90
2018-12-04T09:43:41.168Z,6.00
2018-12-04T09:44:44.654Z,6.00
2018-12-04T09:45:49.381Z,6.00
2018-12-04T09:46:53.227Z,6.00
2018-12-04T09:47:57.267Z,6.00
2018-12-04T09:49:01.757Z,6.10
2018-12-04T09:50:07.476Z,6.10
2018-12-04T09:51:11.133Z,6.10
2018-12-04T09:52:14.817Z,6.20
2018-12-04T09:53:18.722Z,6.20
2018-12-04T09:54:22.448Z,6.20
2018-12-04T09:55:26.007Z,6.30
2018-12-04T09:56:29.864Z,6.30
2018-12-04T09:57:33.925Z,6.30
2018-12-04T09:58:37.599Z,6.40
2018-12-04T09:59:41.067Z,6.40
2018-12-04T10:00:45.494Z,6.50
2018-12-04T10:01:49.339Z,6.50
2018-12-04T10:02:53.604Z,6.50
2018-12-04T10:03:57.243Z,6.50
2018-12-04T10:05:01.429Z,6.50
2018-12-04T10:06:05.596Z,6.60
2018-12-04T10:07:09.152Z,6.50
2018-12-04T10:08:13.103Z,6.50
2018-12-04T10:09:16.683Z,6.60
2018-12-04T10:10:20.394Z,6.60
2018-12-04T10:11:24.656Z,6.60
2018-12-04T10:12:28.395Z,6.60
2018-12-04T10:13:32.255Z,6.60
2018-12-04T10:14:35.778Z,6.60
2018-12-04T10:15:39.845Z,6.70
2018-12-04T10:16:47.773Z,6.70
2018-12-04T10:17:51.332Z,6.70
2018-12-04T10:18:54.874Z,6.80
2018-12-04T10:19:58.436Z,6.80
2018-12-04T10:21:01.941Z,6.80
2018-12-04T10:22:05.862Z,6.90
2018-12-04T10:23:09.510Z,6.90
2018-12-04T10:24:13.282Z,6.90
2018-12-04T10:25:17.213Z,7.00
2018-12-04T10:26:21.846Z,7.00
2018-12-04T10:27:25.633Z,7.00
2018-12-04T10:28:29.333Z,7.00
2018-12-04T10:29:32.917Z,7.00
2018-12-04T10:30:36.471Z,7.00
2018-12-04T10:31:40.005Z,7.10
2018-12-04T10:32:45.693Z,7.10
2018-12-04T10:33:49.375Z,7.10
2018-12-04T10:34:52.845Z,7.10
2018-12-04T10:35:57.198Z,7.20
2018-12-04T10:37:01.455Z,7.20
2018-12-04T10:38:07.013Z,7.20
2018-12-04T10:39:11.088Z,7.20
2018-12-04T10:40:14.922Z,7.30
2018-12-04T10:41:18.598Z,7.30
2018-12-04T10:42:22.176Z,7.30
2018-12-04T10:43:25.874Z,7.30
2018-12-04T10:44:30.129Z,7.30
2018-12-04T10:45:34.034Z,7.30
2018-12-04T10:46:37.746Z,7.30
2018-12-04T10:47:41.377Z,7.40
2018-12-04T10:48:45.076Z,7.40
2018-12-04T10:49:49.491Z,7.50
2018-12-04T10:50:54.112Z,7.50
2018-12-04T10:51:58.064Z,7.50
2018-12-04T10:53:01.728Z,7.50
2018-12-04T10:54:06.050Z,7.50
2018-12-04T10:55:09.965Z,7.50
2018-12-04T10:56:13.979Z,7.50
2018-12-04T10:57:17.431Z,7.50
2018-12-04T10:58:21.485Z,7.40
2018-12-04T10:59:25.094Z,7.40
2018-12-04T11:00:33.981Z,7.40
2018-12-04T11:01:42.914Z,7.50
2018-12-04T11:02:49.697Z,7.50
2018-12-04T11:03:53.217Z,7.50
2018-12-04T11:04:56.874Z,7.60
2018-12-04T11:06:00.445Z,7.60
2018-12-04T11:07:04.179Z,7.60
2018-12-04T11:08:08.134Z,7.60
2018-12-04T11:09:12.562Z,7.60
2018-12-04T11:10:16.062Z,7.60
2018-12-04T11:11:19.602Z,7.70
2018-12-04T11:12:23.074Z,7.70
2018-12-04T11:13:27.327Z,7.70
2018-12-04T11:14:30.940Z,7.70
2018-12-04T11:15:34.496Z,7.70
2018-12-04T11:16:38.029Z,7.70
2018-12-04T11:17:42.818Z,7.70
2018-12-04T11:18:46.945Z,7.70
2018-12-04T11:19:51.444Z,7.70
2018-12-04T11:20:56.523Z,7.60
2018-12-04T11:22:00.135Z,7.70
2018-12-04T11:23:03.956Z,7.70
2018-12-04T11:24:07.801Z,7.70
2018-12-04T11:25:11.596Z,7.70
2018-12-04T11:26:15.150Z,7.70
2018-12-04T11:27:19.312Z,7.70
2018-12-04T11:28:22.814Z,7.70
2018-12-04T11:29:26.428Z,7.80
2018-12-04T11:30:30.132Z,7.80
2018-12-04T11:31:33.899Z,7.80
2018-12-04T11:32:37.424Z,7.80
2018-12-04T11:33:40.935Z,7.80
2018-12-04T11:34:45.353Z,7.80
2018-12-04T11:35:49.757Z,7.80
2018-12-04T11:36:53.408Z,7.80
2018-12-04T11:37:57.443Z,7.80
2018-12-04T11:39:00.920Z,7.80
2018-12-04T11:40:05.205Z,7.80
2018-12-04T11:41:09.469Z,7.80
2018-12-04T11:42:13.494Z,7.80
2018-12-04T11:43:17.107Z,7.90
2018-12-04T11:44:20.756Z,7.90
2018-12-04T11:45:24.457Z,7.90
2018-12-04T11:46:28.652Z,7.90
2018-12-04T11:47:32.155Z,7.90
2018-12-04T11:48:36.494Z,7.90
2018-12-04T11:49:41.026Z,7.90
2018-12-04T11:50:45.317Z,7.90
2018-12-04T11:51:48.941Z,7.90
2018-12-04T11:52:52.436Z,7.90
2018-12-04T11:53:56.038Z,7.90
2018-12-04T11:54:59.637Z,7.90
2018-12-04T11:56:03.226Z,7.80
2018-12-04T11:57:06.925Z,7.80
2018-12-04T11:58:10.584Z,7.80
2018-12-04T11:59:14.206Z,7.90
2018-12-04T12:00:28.065Z,7.80
2018-12-04T12:01:32.825Z,7.80
2018-12-04T12:02:36.669Z,7.90
2018-12-04T12:03:40.663Z,7.90
2018-12-04T12:04:44.597Z,8.00
2018-12-04T12:05:48.347Z,7.90
2018-12-04T12:06:51.939Z,7.90
2018-12-04T12:07:55.831Z,7.90
2018-12-04T12:08:59.503Z,7.90
2018-12-04T12:10:03.120Z,7.90
2018-12-04T12:11:06.625Z,7.90
2018-12-04T12:12:10.479Z,7.90
2018-12-04T12:13:14.412Z,8.00
2018-12-04T12:14:18.285Z,8.00
2018-12-04T12:15:22.470Z,8.00
2018-12-04T12:16:26.482Z,8.00
2018-12-04T12:17:30.172Z,8.10
2018-12-04T12:18:34.532Z,8.10
2018-12-04T12:19:38.257Z,8.10
2018-12-04T12:20:41.772Z,8.10
2018-12-04T12:21:46.053Z,8.10
2018-12-04T12:22:49.665Z,8.10
2018-12-04T12:23:54.041Z,8.10
2018-12-04T12:24:57.602Z,8.10
2018-12-04T12:26:01.252Z,8.10
2018-12-04T12:27:04.773Z,8.10
2018-12-04T12:28:09.430Z,8.10
2018-12-04T12:29:14.470Z,8.10
2018-12-04T12:30:18.069Z,8.10
2018-12-04T12:31:21.561Z,8.10
2018-12-04T12:32:25.545Z,8.10
2018-12-04T12:33:29.117Z,8.10
2018-12-04T12:34:33.209Z,8.00
2018-12-04T12:35:37.075Z,8.00
2018-12-04T12:36:40.605Z,8.00
2018-12-04T12:37:44.291Z,8.00
2018-12-04T12:38:49.489Z,8.00
2018-12-04T12:39:53.951Z,8.00
2018-12-04T12:40:57.597Z,8.00
2018-12-04T12:42:01.914Z,8.00
2018-12-04T12:43:06.244Z,8.00
2018-12-04T12:44:10.309Z,8.00
2018-12-04T12:45:14.572Z,8.00
2018-12-04T12:46:18.256Z,8.00
2018-12-04T12:47:21.946Z,8.00
2018-12-04T12:48:26.446Z,8.00
2018-12-04T12:49:30.020Z,8.00
2018-12-04T12:50:33.594Z,8.00
2018-12-04T12:51:37.361Z,8.00
2018-12-04T12:52:41.574Z,8.00
2018-12-04T12:53:45.225Z,8.00
2018-12-04T12:54:48.774Z,7.90
2018-12-04T12:55:52.761Z,7.90
2018-12-04T12:56:56.275Z,8.00
2018-12-04T12:58:00.649Z,8.00
2018-12-04T12:59:04.469Z,7.90
2018-12-04T13:00:09.975Z,7.90
2018-12-04T13:01:14.134Z,8.00
2018-12-04T13:02:18.065Z,8.00
2018-12-04T13:03:21.588Z,8.00
2018-12-04T13:04:25.584Z,8.00
2018-12-04T13:05:29.220Z,8.00
2018-12-04T13:06:32.975Z,7.90
2018-12-04T13:07:36.663Z,7.90
2018-12-04T13:08:40.967Z,8.00
2018-12-04T13:09:45.301Z,7.90
2018-12-04T13:10:48.879Z,8.00
2018-12-04T13:11:54.159Z,8.00
2018-12-04T13:12:57.700Z,8.00
2018-12-04T13:14:01.480Z,7.90
2018-12-04T13:15:06.798Z,8.00
2018-12-04T13:16:10.814Z,7.90
2018-12-04T13:17:14.564Z,7.90
2018-12-04T13:18:18.119Z,7.90
2018-12-04T13:19:22.328Z,7.80
2018-12-04T13:20:26.297Z,7.90
2018-12-04T13:21:29.900Z,7.90
2018-12-04T13:22:33.460Z,7.90
2018-12-04T13:23:37.108Z,7.80
2018-12-04T13:24:40.796Z,7.90
2018-12-04T13:25:45.127Z,7.90
2018-12-04T13:26:49.545Z,7.90
2018-12-04T13:27:53.512Z,7.80
2018-12-04T13:28:57.030Z,7.80
2018-12-04T13:30:01.167Z,7.80
2018-12-04T13:31:04.893Z,7.80
2018-12-04T13:32:08.808Z,7.80
2018-12-04T13:33:13.140Z,7.80
2018-12-04T13:34:17.330Z,7.80
2018-12-04T13:35:20.909Z,7.80
2018-12-04T13:36:24.932Z,7.80
2018-12-04T13:37:28.507Z,7.70
2018-12-04T13:38:33.574Z,7.80
2018-12-04T13:39:37.404Z,7.70
2018-12-04T13:40:42.742Z,7.70
2018-12-04T13:41:46.510Z,7.70
2018-12-04T13:42:50.175Z,7.70
2018-12-04T13:43:53.844Z,7.70
2018-12-04T13:44:57.915Z,7.70
2018-12-04T13:46:01.563Z,7.70
2018-12-04T13:47:05.124Z,7.60
2018-12-04T13:48:09.952Z,7.70
2018-12-04T13:49:13.882Z,7.60
2018-12-04T13:50:17.698Z,7.60
2018-12-04T13:51:22.315Z,7.70
2018-12-04T13:52:25.843Z,7.60
2018-12-04T13:53:29.388Z,7.60
2018-12-04T13:54:33.011Z,7.60
2018-12-04T13:55:37.424Z,7.50
2018-12-04T13:56:41.065Z,7.50
2018-12-04T13:57:50.529Z,7.50
2018-12-04T13:58:50.815Z,7.50
2018-12-04T13:59:54.572Z,7.50
2018-12-04T14:00:58.795Z,7.40
2018-12-04T14:02:02.503Z,7.40
2018-12-04T14:03:06.493Z,7.40
2018-12-04T14:04:12.339Z,7.40
2018-12-04T14:05:16.879Z,7.40
2018-12-04T14:06:20.545Z,7.40
2018-12-04T14:07:24.959Z,7.40
2018-12-04T14:08:28.613Z,7.40
2018-12-04T14:09:32.455Z,7.40
2018-12-04T14:10:36.249Z,7.30
2018-12-04T14:11:39.855Z,7.30
2018-12-04T14:12:44.741Z,7.30